EGPC

Details ICAO EGPC (WIC)
Name Wick
Region United Kingdom
Timezone Europe/London (UTC+1.0)
Plans Departing 109
Arriving 135
Stats Elevation 126 ft / 38 m (AMSL)
Location 58.457866° -3.092981°
Runways 2
Magnetic Variation 2.546° W
Sunrise 2018-05-27 03:24:23 UTC / 2018-05-27 04:24:23 Local
Sunset 2018-05-27 20:57:33 UTC / 2018-05-27 21:57:33 Local
Advertisement - Login to hide

Runways

ID Width Length Bearing (true) Bearing (mag) Surface Threshold Offset Overrun Length
08 148 ft / 45 m 3,390 ft / 1,033 m 75.45° 78.00° Asphalt 0 ft / 0 m 0 ft / 0 m
13 148 ft / 45 m 5,978 ft / 1,822 m 127.02° 129.57° Asphalt 814 ft / 248 m 0 ft / 0 m
26 148 ft / 45 m 3,390 ft / 1,033 m 255.46° 258.01° Asphalt 0 ft / 0 m 0 ft / 0 m
31 148 ft / 45 m 5,978 ft / 1,822 m 307.04° 309.59° Asphalt 1,010 ft / 308 m 0 ft / 0 m

Map

Weather


0- 5 10 15 20 25 30 35+ Temperature / ° C

Clouds and Precipitation
Forecast for 2018-05-27 12:00 UTC. Updated 4 hours ago

Ground ~20,000 ft ~40,000 ft Winds

METAR

EGPC 271520Z 13008KT 9999 FEW004 12/10 Q1024

TAF

Not found

Frequencies

Tower 119.70 MHz Wick Tower
Approach 119.70 MHz Wick Approach
Warning: Do not use this data for real-world aviation or navigation. No guarantee of current accuracy is given.